North Pole, AK

6:10 PM AKDT on March 30, 2015 (GMT -0800)
Eielson farm road | | Change Station
CLOSE
Current Station
Personal Weather Station
Location: North Pole, AK
Elevation: 550 ft
Nearby Weather Stations

Elev 550 ft 64.67 °N, 147.18 °W | Updated 8 minutes ago

Clear
Clear
50.0 °F
Feels Like 49 °F
N
4.2
Wind Variable Wind from East

Today
High -- | Low -- °F
--% Chance of Precip.
Yesterday
High -- | Low -- °F
Precip. -- in
7:13 AM 8:35 PM
Waxing Gibbous, 83% visible
Pressure 29.56 in
Visibility 10.0 miles
Clouds Clear
Windchill 49 °F
Dew Point 21 °F
Humidity 32%
Rainfall 0.00 in
Snow Depth Not available.
UV 1 out of 12
Pollen Not available.
Air Quality Not available.
Flu Activity Not available.
METAR PAEI 310158Z AUTO 00000KT 10SM CLR 08/M06 A2953 RMK AO2 SLP008 T00751056 $

More Conditions Fewer Conditions

Pressure 29.56 in
Visibility 10.0 miles
Clouds Clear
Windchill 49 °F
Dew Point 21 °F
Humidity 32%
Rainfall 0.00 in
Snow Depth Not available.
UV 1 out of 12
Pollen Not available.
Air Quality Not available.
Flu Activity Not available.
METAR PAEI 310158Z AUTO 00000KT 10SM CLR 08/M06 A2953 RMK AO2 SLP008 T00751056 $

More Conditions Fewer Conditions

10-Day Weather Forecast

Almanac

Astronomy

Mar. 30, 2015 Rise Set
Actual Time
Civil Twilight
Nautical Twilight
Astronomical Twilight
Moon
Length of Visible Light
Length of Day
Tomorrow will be .
, % of the Moon is Illuminated

Today's Extremes

State Highs State Lows

Community

WunderPhotos

Upload Photos

1,809,665 photos uploaded!

WunderBlogs® & News

Nearby

Air Quality

  Air Quality AQ Index Pollutant
Not available.

Snow Depth

Station Depth Elevation

Earthquake Activity

City Distance Mag. Time & Date
Minimum magnitude displayed is 2.5.

Coastal Water Temperatures

Place Temperature

Stations

Nearby Weather Stations

Station Location Temp. Windchill Dew Point Humidity Wind Precip. Elev Updated Type